ADDS METAR Data INFO
IDs: Format: Raw Decoded Include TAF

Data at: 2255 UTC 22 Jun 2018

KSEE 222247Z 28011KT 10SM SKC 30/14 A2980
KSEE 222147Z 26007KT 10SM SKC 31/14 A2981
KSEE 222047Z 25007KT 10SM SKC 31/15 A2983
KSEE 221947Z 27006KT 10SM SKC 30/15 A2985
KSEE 221847Z 22005KT 10SM SKC 28/15 A2987
KSEE 221747Z 00000KT 10SM SKC 25/15 A2989
KSEE 221647Z 00000KT 10SM SKC 22/15 A2991
KSEE 221547Z 00000KT 10SM SKC 19/14 A2991
KSEE 221510Z 00000KT 10SM SCT013 18/14 A2991
KSEE 221447Z 00000KT 09SM BKN013 18/14 A2991
KSEE 221310Z AUTO 00000KT 8SM OVC012 17/14 A2990 RMK AO2
KSEE 221100Z AUTO 00000KT 10SM OVC013 17/14 A2990 RMK AO2
KSEE 220900Z AUTO 00000KT 10SM OVC013 17/14 A2991 RMK AO2
KSEE 220700Z AUTO 00000KT 10SM OVC014 18/14 A2993 RMK AO2
KSEE 220455Z AUTO 28003KT 10SM OVC016 18/14 A2993 RMK AO2
KSEE 220347Z 22005KT 10SM FEW014 18/14 A2992
KSEE 220247Z COR VRB06KT 10SM FEW014 19/14 A2992
KSEE 220147Z COR 22007KT 10SM SKC 21/15 A2991
KSEE 220047Z COR 22009KT 10SM SKC 23/15 A2990
KSEE 212347Z 22009KT 10SM SKC 24/15 A2991
KSEE 212247Z 22011KT 10SM SKC 25/15 A2991
KSEE 212147Z 22009KT 10SM SKC 25/15 A2992
KSEE 212047Z 22011KT 10SM SKC 27/16 A2991
KSEE 211947Z VRB06KT 10SM SKC 28/15 A2993
KSEE 211850Z 00000KT 10SM SKC 26/15 A2994
KSEE 211750Z 00000KT 10SM SKC 23/15 A2995
KSEE 211647Z 00000KT 10SM SCT016 20/15 A2996
KSEE 211547Z 00000KT 8SM OVC016 19/15 A2997
KSEE 211445Z 00000KT 8SM OVC013 18/15 A2994
KSEE 211345Z 00000KT 8SM OVC012 18/15 A2993
KSEE 211235Z AUTO 33003KT 10SM OVC013 18/15 A2992 RMK AO2